Paris Le Bourget, France

6:13 PM CEST on August 28, 2014 (GMT +0200)
Le Bourget | Change Station
CLOSE
Current Station
Airport
Location: Paris Le Bourget,
Elevation: 217 ft
Nearby Weather Stations

Elev 217 ft 48.97 °N, 2.43 °E | Updated 13 minutes ago

Overcast
Overcast
68 °F
Feels Like 68 °F
N
13
Wind Variable Wind from West

Today
High -- | Low -- °F
--% Chance of Precip.
Yesterday
High -- | Low -- °F
Precip. -- in
7:00 AM 8:41 PM
Waxing Crescent, 9% visible
Pressure 29.98 in
Visibility 6.2 miles
Clouds Mostly Cloudy 2200 ft
Mostly Cloudy 2700 ft
Overcast 3300 ft
Dew Point 61 °F
Humidity 78%
Rainfall 0.00 in
Snow Depth Not available.
UV 1 out of 12
Pollen Not available.
Air Quality Not available.
Flu Activity Not available.
METAR LFPB 281600Z AUTO 27011KT 9999 BKN022 BKN027 OVC033 20/16 Q1015

More Conditions Fewer Conditions

Pressure 29.98 in
Visibility 6.2 miles
Clouds Mostly Cloudy 2200 ft
Mostly Cloudy 2700 ft
Overcast 3300 ft
Dew Point 61 °F
Humidity 78%
Rainfall 0.00 in
Snow Depth Not available.
UV 1 out of 12
Pollen Not available.
Air Quality Not available.
Flu Activity Not available.
METAR LFPB 281600Z AUTO 27011KT 9999 BKN022 BKN027 OVC033 20/16 Q1015

More Conditions Fewer Conditions

10-Day Weather Forecast

Almanac

Astronomy

Aug. 28, 2014 Rise Set
Actual Time 7:00 AM CEST 8:41 PM CEST
Civil Twilight 6:27 AM CEST 9:14 PM CEST
Nautical Twilight 5:46 AM CEST 9:55 PM CEST
Astronomical Twilight 5:01 AM CEST 10:39 PM CEST
Moon 9:56 AM CEST 9:37 PM CEST
Length of Visible Light 14h 46m
Length of Day
13h 40m
Tomorrow will be 3m 27s shorter.
Waxing Crescent, 9% of the Moon is Illuminated
Today
Waxing Crescent
Sep 2
First Quarter
Sep 8
Full
Sep 15
Last Quarter
Sep 24
New

Today's Extremes

Country Highs Country Lows

Community

WunderPhotos

Upload Photos

1,748,004 photos uploaded!

Nearby

Snow Depth

Not available.

Earthquake Activity

City Distance Mag. Time & Date
No recent earthquake activity has been reported nearby.
Minimum magnitude displayed is 2.5.

Coastal Water Temperatures

Place Temperature
No Stations Reporting

Nearby Weather Stations